Latest Weather Observations for Nowra

IDN60801

Issued at 10:04 pm EDT Wednesday 4 March 2015 (issued every 30 minutes, with the page automatically refreshed every 10 minutes)

About weather observations | Map of weather stations | Latest weather observations for NSW | Other Formats
Station Details ID: 068072 Name: NOWRA RAN AIR STATION AWS Lat: -34.95 Lon: 150.54 Height: 109.0 m
Data from the previous 72 hours. | See also: Recent months at Nowra
Date/Time
EDT
Temp
°C
App
Temp
°C
Dew
Point
Rel
Hum
%
Delta-T
°C
Wind Press
QNH
hPa
Press
MSL
hPa
Rain
since 9 am
mm
Dir
 
Spd
km/h
Gust
km/h
Spd
kts
Gust
kts
04/09:30pm 20.2 23.9 20.0 99 0.1 CALM 0 6 0 3 1008.4 - 0.0
04/09:00pm 19.9 23.0 18.7 93 0.8 CALM 0 0 0 0 1008.4 1008.1 0.0
04/08:30pm 21.1 23.5 19.7 92 0.9 SSW 6 9 3 5 1008.2 - 0.0
04/08:00pm 21.7 24.0 19.8 89 1.2 SW 7 9 4 5 1008.1 - 0.0
04/07:30pm 22.9 25.7 20.4 86 1.6 S 6 9 3 5 1008.1 - 0.0
04/07:00pm 23.8 26.1 20.7 83 2.0 SSE 9 13 5 7 1007.9 - 0.0
04/06:30pm 24.4 26.6 20.5 79 2.6 ESE 9 15 5 8 1008.0 - 0.0
04/05:30pm 24.4 24.7 19.5 74 3.2 E 17 22 9 12 1008.3 - 0.0
04/04:58pm 25.0 25.7 19.6 72 3.5 ESE 15 19 8 10 1008.4 - 0.0
04/04:30pm 25.4 25.6 19.3 69 3.9 E 17 24 9 13 1008.5 - 0.0
04/04:00pm 25.9 26.1 19.3 67 4.3 E 17 22 9 12 1008.9 - 0.0
04/03:30pm 25.9 27.1 19.8 69 4.0 ESE 13 20 7 11 1009.2 - 0.0
04/03:00pm 25.2 25.2 18.9 68 4.0 ESE 17 20 9 11 1009.7 1009.4 0.0
04/02:30pm 25.1 25.0 18.8 68 4.0 E 17 20 9 11 1010.3 - 0.0
04/02:00pm 25.3 25.3 18.2 64 4.5 ENE 15 20 8 11 1010.6 - 0.0
04/01:30pm 25.6 26.0 19.0 67 4.2 E 15 20 8 11 1010.9 - 0.0
04/01:00pm 25.7 26.6 18.4 64 4.6 E 11 20 6 11 1011.3 - 0.0
04/12:30pm 25.8 26.4 17.7 61 5.1 NNE 11 15 6 8 1011.8 - 0.0
04/12:00pm 25.8 26.1 18.0 62 4.9 NE 13 17 7 9 1012.3 1012.0 0.0
04/11:30am 25.4 26.8 17.8 62 4.8 NW 7 13 4 7 1012.9 - 0.0
04/11:00am 24.7 26.1 17.4 64 4.6 NE 6 9 3 5 1013.3 - 0.0
04/10:00am 22.0 23.9 16.7 72 3.2 SW 2 7 1 4 1014.0 - 0.0
04/08:30am 20.1 20.9 17.3 84 1.7 NNW 9 13 5 7 1013.8 - 0.2
04/08:00am 19.5 20.6 17.1 86 1.5 NW 7 9 4 5 1013.7 - 0.2
04/07:30am 19.1 20.3 16.9 87 1.3 WNW 6 9 3 5 1013.4 - 0.2
04/07:00am 19.0 21.3 16.8 87 1.3 CALM 0 0 0 0 1013.0 - 0.2
04/06:30am 18.9 21.3 17.0 89 1.2 CALM 0 0 0 0 1012.9 - 0.2
04/05:30am 18.8 21.4 17.5 92 0.8 CALM 0 0 0 0 1012.8 - 0.2
04/05:00am 18.6 20.0 17.3 92 0.8 NNW 6 9 3 5 1012.9 - 0.2
04/04:30am 18.8 20.0 17.3 91 0.9 NW 7 9 4 5 1013.3 - 0.2
04/04:00am 18.8 19.6 17.3 91 0.9 NW 9 11 5 6 1013.5 - 0.2
04/03:30am 18.8 19.7 17.5 92 0.8 NW 9 9 5 5 1013.6 - 0.2
04/03:00am 18.8 20.3 17.5 92 0.8 NW 6 7 3 4 1013.9 1013.5 0.2
04/02:30am 18.7 19.9 17.4 92 0.8 NNW 7 7 4 4 1014.1 - 0.2
04/02:00am 18.7 21.3 17.5 93 0.7 CALM 0 2 0 1 1014.4 - 0.2
04/01:30am 18.7 21.2 17.2 91 0.9 CALM 0 0 0 0 1014.7 - 0.2
04/01:00am 18.8 20.6 17.5 92 0.8 W 4 9 2 5 1014.9 - 0.2
04/12:30am 18.9 20.0 17.9 94 0.6 W 9 13 5 7 1015.0 - 0.2
04/12:00am 18.7 20.1 17.7 94 0.6 WNW 7 7 4 4 1015.2 1014.8 0.2
 
Date/Time
EDT
Temp
°C
App
Temp
°C
Dew
Point
Rel
Hum
%
Delta-T
°C
Wind Press
QNH
hPa
Press
MSL
hPa
Rain
since 9 am
mm
Dir
 
Spd
km/h
Gust
km/h
Spd
kts
Gust
kts
03/11:30pm 18.6 20.2 17.9 96 0.4 NW 6 7 3 4 1015.5 - 0.2
03/11:00pm 18.9 20.4 17.6 92 0.8 NW 6 7 3 4 1015.7 - 0.2
03/10:30pm 19.2 20.6 17.3 89 1.2 W 6 7 3 4 1015.5 - 0.2
03/10:00pm 19.5 22.1 17.5 88 1.2 CALM 0 0 0 0 1015.7 - 0.2
03/09:30pm 19.3 22.0 17.8 91 0.9 CALM 0 0 0 0 1015.5 - 0.2
03/09:00pm 19.5 22.5 18.5 94 0.6 CALM 0 0 0 0 1015.4 - 0.2
03/08:30pm 19.1 20.5 17.4 90 1.0 SW 6 9 3 5 1015.1 - 0.2
03/08:00pm 19.8 22.3 17.2 85 1.6 CALM 0 0 0 0 1014.8 - 0.2
03/07:30pm 19.4 21.1 17.2 87 1.3 SSE 4 9 2 5 1014.7 - 0.2
03/07:00pm 19.8 19.6 16.6 82 1.9 S 13 15 7 8 1014.4 - 0.0
03/06:30pm 21.1 20.0 15.2 69 3.5 SSE 15 20 8 11 1014.3 - 0.0
03/06:00pm 21.5 20.3 16.2 72 3.2 SSE 17 22 9 12 1014.1 1013.7 0.0
03/05:30pm 22.1 20.9 16.1 69 3.6 ESE 17 20 9 11 1014.0 - 0.0
03/05:00pm 22.8 21.3 16.4 67 3.9 SSE 19 24 10 13 1014.0 - 0.0
03/04:30pm 22.4 21.2 16.0 67 3.9 SE 17 20 9 11 1013.8 - 0.0
03/04:00pm 23.1 21.4 15.7 63 4.5 SSE 19 22 10 12 1014.0 - 0.0
03/03:30pm 23.2 20.8 14.5 58 5.2 SSE 20 24 11 13 1014.0 - 0.0
03/03:00pm 24.1 22.3 15.6 59 5.1 SSE 19 26 10 14 1014.1 1013.7 0.0
03/02:30pm 23.7 21.8 15.2 59 5.1 SE 19 22 10 12 1014.1 - 0.0
03/02:00pm 23.8 21.7 14.8 57 5.4 SE 19 24 10 13 1014.2 - 0.0
03/01:30pm 24.3 21.8 15.2 57 5.5 SSE 22 28 12 15 1014.3 - 0.0
03/01:00pm 25.6 23.8 15.9 55 5.9 SSE 20 26 11 14 1014.3 - 0.0
03/12:30pm 25.8 25.3 14.9 51 6.6 SE 11 20 6 11 1014.5 - 0.0
03/12:00pm 26.1 25.8 15.5 52 6.5 ENE 11 15 6 8 1014.7 1014.3 0.0
03/11:30am 24.7 24.8 14.5 53 6.1 N 7 13 4 7 1015.1 - 0.0
03/11:00am 24.1 24.1 14.2 54 5.9 N 7 17 4 9 1015.2 - 0.0
03/10:30am 22.9 22.3 13.4 55 5.5 N 9 15 5 8 1015.2 - 0.0
03/10:00am 22.3 20.8 14.2 60 4.8 N 15 20 8 11 1015.2 - 0.0
03/09:30am 21.3 19.5 13.2 60 4.7 NW 15 19 8 10 1015.2 - 0.0
03/09:00am 20.1 18.8 13.8 67 3.6 NW 13 17 7 9 1015.0 1014.6 0.0
03/08:30am 18.6 17.4 13.9 74 2.7 NW 13 15 7 8 1015.2 - 0.0
03/08:00am 17.1 17.3 14.7 86 1.4 NW 7 11 4 6 1014.8 - 0.0
03/07:30am 15.0 16.2 14.8 99 0.1 WNW 2 7 1 4 1014.6 - 0.0
03/07:00am 13.6 13.3 13.4 99 0.1 NW 7 9 4 5 1014.2 - 0.0
03/06:30am 13.3 12.8 12.7 96 0.3 NW 7 7 4 4 1014.2 - 0.0
03/06:00am 13.6 13.2 13.1 97 0.3 NW 7 9 4 5 1014.1 - 0.0
03/05:30am 14.2 14.3 14.0 99 0.1 W 6 9 3 5 1014.2 - 0.0
03/05:00am 14.2 15.4 13.9 98 0.2 CALM 0 0 0 0 1014.2 - 0.0
03/04:30am 14.5 14.4 13.9 96 0.3 W 7 11 4 6 1014.4 - 0.0
03/04:00am 14.6 15.9 14.1 97 0.3 CALM 0 0 0 0 1014.6 - 0.0
03/03:30am 14.6 15.9 14.1 97 0.3 CALM 0 7 0 4 1014.8 - 0.0
03/03:00am 14.8 14.9 14.0 95 0.5 NW 6 7 3 4 1015.0 1014.6 0.0
03/02:30am 15.3 16.8 14.7 96 0.3 CALM 0 7 0 4 1015.5 - 0.0
03/02:00am 15.7 17.2 14.7 94 0.6 CALM 0 0 0 0 1016.1 - 0.0
03/01:30am 15.7 15.5 14.6 93 0.6 W 9 11 5 6 1016.6 - 0.0
03/01:00am 16.5 18.1 15.0 91 0.9 CALM 0 0 0 0 1016.8 - 0.0
03/12:30am 17.0 18.7 15.3 90 1.0 CALM 0 0 0 0 1017.3 - 0.0
03/12:00am 17.9 19.9 15.9 88 1.2 CALM 0 0 0 0 1017.3 1017.0 0.0
 
Date/Time
EDT
Temp
°C
App
Temp
°C
Dew
Point
Rel
Hum
%
Delta-T
°C
Wind Press
QNH
hPa
Press
MSL
hPa
Rain
since 9 am
mm
Dir
 
Spd
km/h
Gust
km/h
Spd
kts
Gust
kts
02/11:30pm 18.5 20.5 16.1 86 1.4 CALM 0 0 0 0 1017.4 - 0.0
02/11:00pm 18.9 19.5 15.2 79 2.2 WSW 6 19 3 10 1017.7 - 0.0
02/10:30pm 18.4 20.5 16.2 87 1.3 CALM 0 0 0 0 1017.5 - 0.0
02/10:00pm 17.9 19.9 15.9 88 1.2 CALM 0 0 0 0 1017.4 - 0.0
02/09:30pm 18.1 19.9 15.4 84 1.6 CALM 0 0 0 0 1017.5 - 0.0
02/09:00pm 18.4 18.3 14.9 80 2.0 NNE 9 13 5 7 1017.0 1016.7 0.0
02/08:30pm 18.9 19.1 14.8 77 2.4 ENE 7 11 4 6 1017.0 - 0.0
02/08:00pm 19.6 19.4 14.6 73 2.9 E 9 13 5 7 1017.3 - 0.0
02/07:30pm 20.2 19.5 14.3 69 3.4 E 11 13 6 7 1017.1 - 0.0
02/07:00pm 20.7 20.0 14.4 67 3.7 ENE 11 15 6 8 1016.9 - 0.0
02/06:30pm 20.9 20.4 15.0 69 3.5 E 11 17 6 9 1016.9 - 0.0
02/06:00pm 21.7 19.5 13.3 59 4.8 E 17 20 9 11 1016.7 1016.3 0.0
02/05:30pm 21.7 19.6 13.6 60 4.7 E 17 24 9 13 1016.9 - 0.0
02/05:00pm 21.5 21.0 14.9 66 3.9 E 11 15 6 8 1016.9 - 0.0
02/04:30pm 21.9 21.0 14.8 64 4.2 E 13 20 7 11 1016.9 - 0.0
02/04:00pm 22.0 19.7 14.1 61 4.6 E 19 24 10 13 1016.9 - 0.0
02/03:30pm 22.2 20.6 13.8 59 4.9 ESE 15 26 8 14 1017.2 - 0.0
02/03:00pm 21.8 19.6 13.4 59 4.9 E 17 22 9 12 1017.6 1017.3 0.0
02/02:30pm 22.2 21.0 14.1 60 4.7 ESE 13 19 7 10 1017.9 - 0.0
02/02:00pm 21.7 20.4 13.6 60 4.7 E 13 20 7 11 1018.2 - 0.0
02/01:30pm 21.6 19.8 12.2 55 5.3 E 13 19 7 10 1018.4 - 0.0
02/01:00pm 21.8 19.6 12.1 54 5.5 ESE 15 24 8 13 1018.8 - 0.0
02/12:30pm 21.6 20.3 12.5 56 5.2 E 11 19 6 10 1019.2 - 0.0
02/12:00pm 21.5 19.5 11.5 53 5.6 E 13 30 7 16 1019.5 1019.2 0.0
02/11:30am 21.7 20.0 12.3 55 5.3 SSE 13 20 7 11 1019.8 - 0.0
02/11:00am 21.1 19.5 11.7 55 5.3 SE 11 20 6 11 1019.9 - 0.0
02/10:30am 20.5 18.9 11.4 56 5.0 SSE 11 17 6 9 1019.7 - 0.0
02/10:00am 19.5 17.2 10.5 56 4.9 S 13 19 7 10 1019.8 - 0.0
02/09:30am 19.3 17.3 10.0 55 5.0 S 11 17 6 9 1020.0 - 0.0
02/09:00am 18.3 16.1 9.4 56 4.7 SSW 11 15 6 8 1019.8 - 11.4
02/08:30am 16.7 15.3 9.4 62 3.8 WNW 7 11 4 6 1019.6 - 11.4
02/08:00am 15.0 13.7 9.8 71 2.7 NW 7 11 4 6 1019.5 - 11.4
02/07:30am 13.4 12.1 10.0 80 1.8 NW 7 9 4 5 1019.5 - 11.4
02/07:00am 12.3 10.6 10.0 86 1.2 NW 9 9 5 5 1019.0 - 11.4
02/06:30am 12.7 12.7 9.7 82 1.5 CALM 0 0 0 0 1018.5 - 11.4
02/06:00am 13.3 11.9 9.7 79 1.9 WNW 7 11 4 6 1018.3 - 11.4
02/05:30am 13.9 12.5 8.7 71 2.6 WSW 6 9 3 5 1017.8 - 11.4
02/05:00am 14.2 11.6 9.2 72 2.6 SW 13 17 7 9 1017.7 - 11.4
02/04:30am 14.0 11.0 9.4 74 2.4 SW 15 19 8 10 1017.6 - 11.4
02/04:00am 13.9 10.5 9.3 74 2.4 SSW 17 20 9 11 1017.1 - 11.4
02/03:30am 14.3 11.4 9.5 73 2.5 SSW 15 20 8 11 1017.5 - 11.4
02/03:00am 13.9 11.5 10.1 78 2.0 SW 13 15 7 8 1017.7 1017.4 11.4
02/02:30am 14.3 13.1 10.3 77 2.1 WSW 7 9 4 5 1017.9 - 11.4
02/02:00am 15.2 12.8 10.0 71 2.7 SSW 13 17 7 9 1018.3 - 11.4
02/01:30am 15.8 13.7 9.9 68 3.1 SSW 11 17 6 9 1018.0 - 11.4
02/01:00am 17.0 14.6 9.9 63 3.8 S 13 20 7 11 1017.9 - 11.4
02/12:30am 17.4 15.2 10.8 65 3.6 S 13 17 7 9 1017.9 - 11.4
02/12:00am 18.1 15.6 11.0 63 3.9 S 15 20 8 11 1017.7 1017.4 11.4
 
Date/Time
EDT
Temp
°C
App
Temp
°C
Dew
Point
Rel
Hum
%
Delta-T
°C
Wind Press
QNH
hPa
Press
MSL
hPa
Rain
since 9 am
mm
Dir
 
Spd
km/h
Gust
km/h
Spd
kts
Gust
kts
01/11:30pm 18.8 15.0 11.1 61 4.2 S 22 32 12 17 1017.5 - 11.4
01/11:00pm 19.1 14.9 11.2 60 4.3 SSE 24 37 13 20 1017.3 - 11.4
01/10:30pm 19.3 15.9 11.3 60 4.4 SSE 20 33 11 18 1017.3 - 11.4

Other Formats:

Comma delimited format used in spreadsheet applications
http://www.bom.gov.au/fwo/IDN60801/IDN60801.94750.axf

JavaScript Object Notation format (JSON) in row-major order
http://www.bom.gov.au/fwo/IDN60801/IDN60801.94750.json